createdAt,value
2018-09-18T00:01:49.932Z,12.53
2018-09-18T00:04:18.604Z,11.20
2018-09-18T00:06:47.338Z,9.80
2018-09-18T00:09:16.034Z,14.63
2018-09-18T00:11:44.643Z,10.43
2018-09-18T00:14:13.353Z,8.67
2018-09-18T00:16:42.105Z,10.80
2018-09-18T00:19:10.848Z,10.63
2018-09-18T00:21:39.548Z,10.90
2018-09-18T00:24:08.205Z,12.57
2018-09-18T00:26:36.736Z,9.43
2018-09-18T00:29:05.415Z,9.93
2018-09-18T00:31:34.330Z,12.93
2018-09-18T00:34:03.016Z,8.87
2018-09-18T00:36:31.733Z,10.17
2018-09-18T00:39:00.296Z,9.00
2018-09-18T00:41:28.871Z,10.23
2018-09-18T00:43:57.455Z,13.67
2018-09-18T00:46:26.041Z,12.90
2018-09-18T00:48:54.580Z,13.80
2018-09-18T00:51:23.268Z,13.13
2018-09-18T00:53:51.873Z,16.90
2018-09-18T00:56:20.405Z,12.47
2018-09-18T00:58:49.352Z,11.13
2018-09-18T01:01:17.901Z,10.73
2018-09-18T01:03:46.537Z,10.63
2018-09-18T01:06:15.188Z,10.33
2018-09-18T01:08:43.785Z,10.33
2018-09-18T01:11:14.250Z,10.83
2018-09-18T01:13:43.955Z,10.63
2018-09-18T01:16:12.545Z,10.43
2018-09-18T01:18:42.110Z,12.03
2018-09-18T01:21:11.437Z,10.20
2018-09-18T01:23:40.036Z,11.93
2018-09-18T01:26:08.667Z,13.60
2018-09-18T01:28:37.275Z,13.20
2018-09-18T01:31:06.005Z,11.03
2018-09-18T01:33:35.078Z,11.30
2018-09-18T01:36:04.465Z,10.73
2018-09-18T01:38:33.130Z,9.80
2018-09-18T01:41:01.844Z,12.77
2018-09-18T01:43:30.535Z,14.83
2018-09-18T01:45:59.201Z,15.70
2018-09-18T01:48:27.829Z,14.83
2018-09-18T01:50:56.465Z,11.07
2018-09-18T01:53:25.439Z,11.73
2018-09-18T01:55:54.078Z,12.33
2018-09-18T01:58:28.205Z,18.00
2018-09-18T02:00:56.800Z,17.03
2018-09-18T02:03:25.425Z,21.20
2018-09-18T02:05:54.043Z,24.10
2018-09-18T02:08:22.668Z,21.10
2018-09-18T02:10:51.243Z,22.63
2018-09-18T02:13:19.806Z,27.57
2018-09-18T02:15:48.568Z,29.10
2018-09-18T02:18:17.136Z,16.53
2018-09-18T02:20:45.713Z,12.80
2018-09-18T02:23:14.288Z,13.57
2018-09-18T02:25:43.496Z,14.73
2018-09-18T02:28:12.193Z,15.30
2018-09-18T02:30:40.863Z,15.03
2018-09-18T02:33:09.711Z,13.03
2018-09-18T02:35:38.406Z,13.67
2018-09-18T02:38:07.142Z,14.50
2018-09-18T02:40:35.848Z,13.30
2018-09-18T02:43:04.961Z,14.27
2018-09-18T02:45:33.656Z,15.47
2018-09-18T02:48:02.416Z,14.30
2018-09-18T02:50:32.095Z,15.20
2018-09-18T02:53:00.748Z,19.57
2018-09-18T02:55:29.425Z,14.83
2018-09-18T02:57:58.017Z,16.90
2018-09-18T03:00:26.643Z,19.90
2018-09-18T03:02:55.260Z,13.80
2018-09-18T03:05:23.833Z,15.80
2018-09-18T03:07:52.393Z,15.97
2018-09-18T03:10:20.953Z,16.30
2018-09-18T03:12:49.548Z,15.47
2018-09-18T03:15:18.318Z,17.03
2018-09-18T03:17:46.916Z,11.80
2018-09-18T03:20:15.563Z,13.80
2018-09-18T03:22:44.122Z,17.07
2018-09-18T03:25:12.764Z,19.73
2018-09-18T03:27:41.335Z,18.83
2018-09-18T03:30:09.994Z,17.70
2018-09-18T03:32:38.643Z,19.20
2018-09-18T03:35:07.203Z,16.70
2018-09-18T03:37:35.793Z,19.43
2018-09-18T03:40:04.518Z,18.87
2018-09-18T03:42:33.102Z,16.00
2018-09-18T03:45:01.701Z,16.87
2018-09-18T03:47:30.245Z,20.70
2018-09-18T03:49:58.853Z,17.10
2018-09-18T03:52:27.438Z,19.53
2018-09-18T03:54:56.003Z,18.00
2018-09-18T03:57:24.621Z,17.27
2018-09-18T03:59:53.286Z,18.57
2018-09-18T04:02:22.171Z,21.90
2018-09-18T04:04:51.751Z,21.17
2018-09-18T04:07:20.318Z,21.70
2018-09-18T04:09:48.960Z,17.50
2018-09-18T04:12:17.631Z,16.43
2018-09-18T04:14:46.296Z,19.03
2018-09-18T04:17:15.736Z,21.87
2018-09-18T04:19:44.446Z,17.83
2018-09-18T04:22:13.014Z,19.50
2018-09-18T04:24:41.593Z,21.13
2018-09-18T04:27:11.144Z,18.07
2018-09-18T04:29:39.712Z,20.43
2018-09-18T04:32:08.312Z,18.33
2018-09-18T04:34:36.868Z,20.00
2018-09-18T04:37:05.473Z,20.40
2018-09-18T04:39:35.023Z,16.50
2018-09-18T04:42:03.644Z,20.00
2018-09-18T04:44:32.286Z,16.10
2018-09-18T04:47:00.881Z,16.50
2018-09-18T04:49:29.510Z,13.37
2018-09-18T04:51:58.108Z,17.47
2018-09-18T04:54:26.751Z,15.00
2018-09-18T04:56:55.501Z,22.27
2018-09-18T04:59:24.261Z,14.67
2018-09-18T05:01:53.017Z,13.43
2018-09-18T05:04:22.123Z,16.53
2018-09-18T05:06:50.936Z,17.67
2018-09-18T05:09:19.696Z,16.30
2018-09-18T05:11:48.342Z,14.03
2018-09-18T05:14:17.001Z,12.73
2018-09-18T05:16:45.736Z,13.03
2018-09-18T05:19:14.453Z,19.27
2018-09-18T05:21:43.180Z,14.93
2018-09-18T05:24:11.891Z,13.97
2018-09-18T05:26:40.616Z,13.73
2018-09-18T05:29:09.364Z,15.97
2018-09-18T05:31:38.034Z,13.60
2018-09-18T05:34:06.683Z,19.10
2018-09-18T05:36:35.361Z,22.10
2018-09-18T05:39:05.975Z,18.63
2018-09-18T05:41:34.681Z,15.77
2018-09-18T05:44:03.454Z,16.40
2018-09-18T05:46:32.207Z,13.43
2018-09-18T05:49:00.871Z,13.57
2018-09-18T05:51:29.528Z,16.60
2018-09-18T05:53:58.176Z,15.70
2018-09-18T05:56:26.937Z,14.07
2018-09-18T05:58:55.661Z,14.10
2018-09-18T06:01:24.431Z,16.80
2018-09-18T06:03:53.033Z,14.97
2018-09-18T06:06:21.588Z,14.97
2018-09-18T06:08:50.103Z,13.80
2018-09-18T06:11:18.701Z,14.60
2018-09-18T06:13:47.366Z,12.83
2018-09-18T06:16:16.133Z,14.20
2018-09-18T06:18:44.871Z,10.50
2018-09-18T06:21:14.516Z,13.53
2018-09-18T06:23:43.293Z,12.13
2018-09-18T06:26:12.009Z,11.13
2018-09-18T06:28:40.648Z,11.43
2018-09-18T06:31:09.333Z,9.93
2018-09-18T06:33:37.917Z,10.57
2018-09-18T06:36:06.605Z,9.93
2018-09-18T06:38:35.168Z,11.57
2018-09-18T06:41:03.700Z,10.70
2018-09-18T06:43:32.205Z,10.63
2018-09-18T06:46:00.736Z,13.87
2018-09-18T06:48:29.347Z,13.83
2018-09-18T06:50:57.880Z,14.25
2018-09-18T06:53:26.400Z,15.47
2018-09-18T06:55:54.945Z,18.15
2018-09-18T06:58:23.486Z,11.73
2018-09-18T07:00:52.023Z,10.78
2018-09-18T07:03:20.593Z,13.62
2018-09-18T07:05:49.343Z,15.43
2018-09-18T07:08:18.025Z,14.75
2018-09-18T07:10:46.675Z,10.28
2018-09-18T07:13:15.493Z,14.65
2018-09-18T07:15:44.146Z,9.73
2018-09-18T07:18:12.849Z,12.80
2018-09-18T07:20:41.522Z,10.78
2018-09-18T07:23:10.155Z,11.25
2018-09-18T07:25:38.818Z,11.75
2018-09-18T07:28:07.450Z,7.97
2018-09-18T07:30:36.127Z,11.35
2018-09-18T07:33:04.798Z,11.93
2018-09-18T07:35:33.448Z,10.85
2018-09-18T07:38:02.083Z,11.12
2018-09-18T07:40:30.740Z,9.13
2018-09-18T07:42:59.409Z,7.87
2018-09-18T07:45:28.052Z,10.20
2018-09-18T07:47:56.673Z,12.28
2018-09-18T07:50:25.321Z,8.75
2018-09-18T07:52:53.943Z,10.18
2018-09-18T07:55:28.036Z,10.90
2018-09-18T07:57:56.559Z,8.80
2018-09-18T08:00:25.105Z,13.45
2018-09-18T08:02:53.637Z,9.65
2018-09-18T08:05:22.257Z,9.03
2018-09-18T08:07:50.929Z,8.50
2018-09-18T08:10:19.669Z,9.50
2018-09-18T08:12:48.419Z,8.85
2018-09-18T08:15:17.002Z,13.55
2018-09-18T08:17:45.554Z,9.48
2018-09-18T08:20:14.119Z,11.63
2018-09-18T08:22:42.654Z,7.75
2018-09-18T08:25:11.269Z,8.70
2018-09-18T08:27:39.949Z,6.45
2018-09-18T08:30:08.703Z,8.60
2018-09-18T08:32:37.356Z,11.25
2018-09-18T08:35:06.127Z,11.43
2018-09-18T08:37:34.814Z,8.70
2018-09-18T08:40:03.589Z,6.30
2018-09-18T08:42:32.286Z,7.53
2018-09-18T08:45:00.926Z,6.65
2018-09-18T08:47:29.604Z,9.80
2018-09-18T08:49:58.349Z,9.83
2018-09-18T08:52:27.028Z,8.70
2018-09-18T08:54:55.667Z,7.17
2018-09-18T08:57:24.852Z,6.62
2018-09-18T08:59:53.718Z,13.62
2018-09-18T09:02:22.407Z,7.72
2018-09-18T09:04:51.081Z,15.93
2018-09-18T09:07:19.905Z,7.62
2018-09-18T09:09:48.589Z,10.05
2018-09-18T09:12:17.338Z,9.08
2018-09-18T09:14:45.954Z,6.55
2018-09-18T09:17:14.527Z,5.33
2018-09-18T09:19:43.117Z,6.28
2018-09-18T09:22:11.772Z,6.42
2018-09-18T09:24:40.396Z,10.40
2018-09-18T09:27:09.131Z,6.65
2018-09-18T09:29:37.862Z,8.15
2018-09-18T09:32:06.923Z,9.28
2018-09-18T09:34:35.612Z,6.17
2018-09-18T09:37:04.461Z,5.87
2018-09-18T09:39:33.138Z,8.03
2018-09-18T09:42:05.607Z,7.33
2018-09-18T09:44:34.199Z,6.33
2018-09-18T09:47:02.769Z,6.87
2018-09-18T09:49:31.306Z,6.58
2018-09-18T09:51:59.849Z,7.90
2018-09-18T09:54:28.434Z,7.08
2018-09-18T09:56:57.046Z,9.83
2018-09-18T09:59:25.543Z,7.70
2018-09-18T10:01:59.596Z,10.78
2018-09-18T10:04:28.146Z,7.95
2018-09-18T10:06:56.742Z,8.50
2018-09-18T10:09:30.931Z,4.75
2018-09-18T10:11:59.599Z,6.55
2018-09-18T10:14:28.181Z,9.25
2018-09-18T10:16:56.818Z,9.93
2018-09-18T10:19:25.356Z,9.08
2018-09-18T10:21:54.040Z,7.87
2018-09-18T10:24:22.714Z,6.03
2018-09-18T10:26:51.485Z,6.95
2018-09-18T10:29:20.216Z,5.37
2018-09-18T10:31:48.961Z,10.50
2018-09-18T10:34:17.629Z,8.83
2018-09-18T10:36:46.314Z,6.85
2018-09-18T10:39:15.089Z,6.75
2018-09-18T10:41:43.815Z,8.13
2018-09-18T10:44:13.031Z,11.60
2018-09-18T10:46:41.638Z,7.12
2018-09-18T10:49:10.231Z,9.00
2018-09-18T10:51:38.786Z,6.60
2018-09-18T10:54:07.496Z,10.55
2018-09-18T10:56:36.228Z,9.93
2018-09-18T10:59:05.657Z,6.30
2018-09-18T11:01:34.371Z,6.25
2018-09-18T11:04:03.124Z,6.22
2018-09-18T11:06:31.811Z,10.13
2018-09-18T11:09:00.566Z,8.63
2018-09-18T11:11:29.310Z,7.70
2018-09-18T11:13:58.062Z,8.73
2018-09-18T11:16:26.603Z,6.17
2018-09-18T11:18:55.230Z,9.33
2018-09-18T11:21:23.880Z,9.98
2018-09-18T11:23:52.526Z,11.00
2018-09-18T11:26:21.209Z,9.33
2018-09-18T11:28:50.552Z,11.22
2018-09-18T11:31:19.378Z,12.65
2018-09-18T11:33:47.922Z,12.65
2018-09-18T11:36:16.465Z,12.80
2018-09-18T11:38:45.047Z,12.95
2018-09-18T11:41:13.604Z,10.45
2018-09-18T11:43:42.281Z,10.60
2018-09-18T11:46:10.981Z,12.70
2018-09-18T11:48:39.686Z,10.78
2018-09-18T11:51:08.357Z,12.70
2018-09-18T11:53:36.961Z,14.73
2018-09-18T11:56:11.214Z,8.73
2018-09-18T11:58:46.069Z,9.50
2018-09-18T12:01:14.726Z,8.83
2018-09-18T12:03:43.616Z,6.78
2018-09-18T12:06:12.311Z,5.75
2018-09-18T12:08:41.835Z,10.72
2018-09-18T12:11:10.716Z,6.83
2018-09-18T12:13:39.393Z,11.00
2018-09-18T12:16:08.064Z,8.18
2018-09-18T12:18:37.367Z,6.42
2018-09-18T12:21:07.173Z,9.08
2018-09-18T12:23:35.802Z,7.45
2018-09-18T12:26:04.507Z,7.25
2018-09-18T12:28:33.476Z,11.22
2018-09-18T12:31:02.314Z,8.58
2018-09-18T12:33:31.077Z,6.75
2018-09-18T12:35:59.873Z,5.25
2018-09-18T12:38:28.567Z,8.65
2018-09-18T12:40:57.307Z,12.28
2018-09-18T12:43:25.869Z,8.95
2018-09-18T12:45:54.497Z,10.40
2018-09-18T12:48:24.069Z,9.23
2018-09-18T12:50:52.797Z,6.85
2018-09-18T12:53:27.038Z,8.15
2018-09-18T12:55:56.835Z,8.13
2018-09-18T12:58:25.685Z,6.20
2018-09-18T13:00:54.441Z,9.48
2018-09-18T13:03:23.320Z,10.63
2018-09-18T13:05:52.158Z,9.98
2018-09-18T13:08:21.435Z,9.03
2018-09-18T13:10:50.188Z,7.45
2018-09-18T13:13:18.920Z,10.25
2018-09-18T13:15:47.745Z,8.85
2018-09-18T13:18:16.489Z,5.78
2018-09-18T13:20:45.309Z,10.08
2018-09-18T13:23:14.037Z,10.43
2018-09-18T13:25:42.804Z,7.87
2018-09-18T13:28:11.527Z,9.78
2018-09-18T13:30:40.314Z,11.70
2018-09-18T13:33:09.017Z,9.25
2018-09-18T13:35:38.088Z,8.43
2018-09-18T13:38:07.373Z,8.30
2018-09-18T13:40:36.556Z,9.58
2018-09-18T13:43:05.278Z,8.00
2018-09-18T13:45:33.977Z,10.18
2018-09-18T13:48:02.853Z,8.60
2018-09-18T13:50:31.856Z,9.50
2018-09-18T13:53:02.969Z,8.43
2018-09-18T13:55:31.863Z,7.78
2018-09-18T13:58:01.047Z,9.95
2018-09-18T14:00:30.012Z,9.10
2018-09-18T14:03:00.582Z,10.28
2018-09-18T14:05:29.750Z,7.80
2018-09-18T14:07:58.513Z,10.15
2018-09-18T14:10:27.444Z,12.03
2018-09-18T14:12:56.497Z,7.53
2018-09-18T14:15:25.333Z,10.85
2018-09-18T14:17:54.191Z,6.80
2018-09-18T14:20:22.968Z,9.10
2018-09-18T14:22:51.708Z,10.10
2018-09-18T14:25:21.239Z,6.70
2018-09-18T14:27:50.026Z,8.38
2018-09-18T14:30:18.762Z,5.95
2018-09-18T14:32:47.626Z,10.75
2018-09-18T14:35:16.424Z,10.15
2018-09-18T14:37:45.642Z,10.95
2018-09-18T14:40:14.369Z,32.48
2018-09-18T14:42:43.113Z,60.58
2018-09-18T14:45:11.900Z,62.45
2018-09-18T14:47:41.749Z,13.00
2018-09-18T14:50:11.229Z,8.35
2018-09-18T14:52:39.971Z,18.70
2018-09-18T14:55:08.775Z,11.97
2018-09-18T14:57:38.416Z,8.75
2018-09-18T15:00:07.243Z,6.72
2018-09-18T15:02:36.011Z,8.53
2018-09-18T15:05:04.876Z,9.43
2018-09-18T15:07:33.634Z,6.30
2018-09-18T15:10:03.353Z,6.40
2018-09-18T15:12:32.117Z,4.87
2018-09-18T15:15:06.403Z,7.50
2018-09-18T15:17:35.034Z,5.73
2018-09-18T15:20:04.596Z,9.57
2018-09-18T15:22:33.484Z,7.67
2018-09-18T15:25:02.159Z,24.80
2018-09-18T15:27:31.498Z,18.37
2018-09-18T15:30:00.074Z,15.07
2018-09-18T15:32:28.774Z,13.83
2018-09-18T15:34:57.828Z,11.60
2018-09-18T15:37:26.578Z,8.80
2018-09-18T15:39:55.927Z,6.87
2018-09-18T15:42:24.596Z,6.50
2018-09-18T15:44:53.244Z,7.97
2018-09-18T15:47:21.962Z,6.03
2018-09-18T15:49:50.774Z,7.03
2018-09-18T15:52:19.581Z,4.57
2018-09-18T15:54:48.340Z,7.47
2018-09-18T15:57:17.655Z,5.57
2018-09-18T15:59:46.485Z,4.63
2018-09-18T16:02:15.324Z,6.20
2018-09-18T16:04:44.044Z,10.57
2018-09-18T16:07:12.756Z,6.20
2018-09-18T16:09:41.473Z,4.93
2018-09-18T16:12:10.196Z,5.07
2018-09-18T16:14:38.999Z,5.13
2018-09-18T16:17:07.689Z,10.50
2018-09-18T16:19:41.920Z,6.30
2018-09-18T16:22:10.540Z,8.03
2018-09-18T16:24:39.159Z,8.93
2018-09-18T16:27:07.868Z,8.87
2018-09-18T16:29:36.616Z,7.60
2018-09-18T16:32:05.316Z,6.50
2018-09-18T16:34:34.661Z,6.57
2018-09-18T16:37:03.312Z,10.03
2018-09-18T16:39:37.379Z,9.37
2018-09-18T16:42:06.019Z,8.63
2018-09-18T16:44:45.751Z,4.27
2018-09-18T16:47:14.747Z,8.53
2018-09-18T16:49:43.464Z,7.47
2018-09-18T16:52:12.240Z,7.60
2018-09-18T16:54:41.058Z,5.47
2018-09-18T16:57:09.694Z,6.20
2018-09-18T16:59:39.067Z,7.43
2018-09-18T17:02:07.710Z,5.63
2018-09-18T17:04:36.377Z,5.40
2018-09-18T17:07:05.252Z,6.97
2018-09-18T17:09:34.016Z,7.57
2018-09-18T17:12:02.758Z,7.77
2018-09-18T17:14:31.628Z,7.27
2018-09-18T17:17:00.331Z,7.00
2018-09-18T17:19:29.601Z,8.40
2018-09-18T17:21:58.196Z,8.33
2018-09-18T17:24:38.736Z,6.43
2018-09-18T17:27:08.159Z,7.80
2018-09-18T17:29:36.972Z,10.43
2018-09-18T17:32:05.681Z,10.17
2018-09-18T17:34:34.356Z,5.60
2018-09-18T17:37:03.026Z,9.43
2018-09-18T17:39:31.657Z,8.67
2018-09-18T17:42:00.299Z,9.10
2018-09-18T17:44:29.745Z,9.53
2018-09-18T17:46:59.306Z,6.87
2018-09-18T17:49:33.611Z,8.03
2018-09-18T17:52:03.437Z,6.67
2018-09-18T17:54:32.225Z,7.20
2018-09-18T17:57:04.852Z,11.47
2018-09-18T17:59:36.198Z,9.27
2018-09-18T18:02:05.358Z,7.27
2018-09-18T18:04:34.236Z,8.50
2018-09-18T18:07:03.237Z,9.43
2018-09-18T18:09:32.092Z,8.60
2018-09-18T18:12:01.132Z,6.17
2018-09-18T18:14:36.595Z,10.90
2018-09-18T18:17:06.925Z,7.10
2018-09-18T18:19:41.509Z,12.07
2018-09-18T18:22:11.035Z,8.90
2018-09-18T18:24:45.249Z,10.80
2018-09-18T18:27:14.518Z,9.77
2018-09-18T18:29:43.367Z,8.57
2018-09-18T18:32:17.470Z,10.47
2018-09-18T18:34:46.135Z,12.93
2018-09-18T18:37:14.979Z,10.33
2018-09-18T18:39:43.731Z,9.20
2018-09-18T18:42:19.041Z,11.47
2018-09-18T18:44:47.957Z,7.83
2018-09-18T18:47:17.224Z,9.03
2018-09-18T18:49:46.011Z,9.70
2018-09-18T18:52:14.797Z,14.33
2018-09-18T18:54:43.787Z,12.20
2018-09-18T18:57:12.762Z,11.20
2018-09-18T18:59:41.561Z,10.77
2018-09-18T19:02:11.343Z,9.20
2018-09-18T19:04:40.103Z,12.80
2018-09-18T19:07:09.516Z,10.80
2018-09-18T19:09:38.231Z,9.40
2018-09-18T19:12:08.996Z,9.73
2018-09-18T19:14:38.004Z,10.57
2018-09-18T19:17:07.795Z,9.20
2018-09-18T19:19:36.460Z,11.23
2018-09-18T19:22:16.163Z,8.97
2018-09-18T19:24:44.774Z,9.40
2018-09-18T19:27:13.483Z,8.83
2018-09-18T19:29:42.241Z,12.20
2018-09-18T19:32:10.982Z,12.03
2018-09-18T19:34:40.525Z,9.60
2018-09-18T19:37:09.406Z,12.30
2018-09-18T19:39:38.239Z,11.33
2018-09-18T19:42:07.123Z,9.90
2018-09-18T19:44:35.947Z,11.50
2018-09-18T19:47:04.740Z,8.10
2018-09-18T19:49:39.652Z,9.40
2018-09-18T19:52:09.828Z,10.40
2018-09-18T19:54:44.574Z,14.93
2018-09-18T19:57:18.789Z,10.80
2018-09-18T19:59:47.417Z,8.33
2018-09-18T20:02:16.054Z,9.10
2018-09-18T20:04:44.738Z,9.50
2018-09-18T20:07:13.424Z,9.93
2018-09-18T20:09:42.180Z,11.63
2018-09-18T20:12:11.612Z,11.17
2018-09-18T20:14:40.274Z,8.37
2018-09-18T20:17:14.531Z,10.40
2018-09-18T20:19:48.765Z,9.97
2018-09-18T20:22:23.157Z,17.53
2018-09-18T20:24:51.803Z,12.77
2018-09-18T20:27:26.175Z,9.77
2018-09-18T20:29:55.630Z,14.27
2018-09-18T20:32:24.811Z,8.93
2018-09-18T20:34:54.498Z,13.37
2018-09-18T20:37:23.573Z,10.60
2018-09-18T20:39:52.304Z,12.90
2018-09-18T20:42:21.046Z,12.10
2018-09-18T20:44:50.426Z,6.97
2018-09-18T20:47:19.143Z,12.97
2018-09-18T20:49:47.799Z,8.10
2018-09-18T20:52:16.441Z,10.50
2018-09-18T20:54:45.092Z,12.03
2018-09-18T20:57:13.907Z,7.40
2018-09-18T20:59:42.689Z,16.10
2018-09-18T21:02:11.453Z,8.43
2018-09-18T21:04:40.201Z,9.87
2018-09-18T21:07:09.239Z,10.80
2018-09-18T21:09:37.999Z,9.83
2018-09-18T21:12:07.427Z,11.83
2018-09-18T21:14:36.008Z,11.33
2018-09-18T21:17:10.228Z,11.70
2018-09-18T21:19:39.443Z,9.00
2018-09-18T21:22:08.026Z,10.70
2018-09-18T21:24:36.691Z,11.73
2018-09-18T21:27:10.866Z,9.30
2018-09-18T21:29:40.121Z,11.30
2018-09-18T21:32:08.773Z,11.20
2018-09-18T21:34:37.477Z,9.53
2018-09-18T21:37:06.343Z,10.53
2018-09-18T21:39:35.067Z,13.40
2018-09-18T21:42:04.446Z,10.57
2018-09-18T21:44:34.187Z,13.77
2018-09-18T21:47:02.864Z,15.70
2018-09-18T21:49:32.286Z,13.43
2018-09-18T21:52:01.468Z,11.10
2018-09-18T21:54:30.222Z,13.13
2018-09-18T21:56:59.536Z,13.50
2018-09-18T21:59:28.244Z,17.23
2018-09-18T22:01:56.848Z,14.00
2018-09-18T22:04:25.505Z,14.47
2018-09-18T22:06:54.196Z,16.13
2018-09-18T22:09:22.876Z,13.80
2018-09-18T22:11:51.768Z,12.60
2018-09-18T22:14:20.538Z,14.50
2018-09-18T22:16:49.932Z,10.87
2018-09-18T22:19:18.618Z,14.43
2018-09-18T22:21:47.429Z,12.63
2018-09-18T22:24:16.102Z,11.23
2018-09-18T22:26:44.835Z,15.80
2018-09-18T22:29:13.546Z,12.40
2018-09-18T22:31:42.365Z,12.33
2018-09-18T22:34:11.098Z,14.57
2018-09-18T22:36:39.783Z,14.47
2018-09-18T22:39:10.408Z,13.50
2018-09-18T22:41:39.265Z,11.63
2018-09-18T22:44:08.220Z,11.80
2018-09-18T22:46:36.983Z,13.70
2018-09-18T22:49:06.128Z,10.40
2018-09-18T22:51:34.839Z,17.67
2018-09-18T22:54:03.624Z,13.03
2018-09-18T22:56:32.328Z,14.60
2018-09-18T22:59:01.132Z,10.83
2018-09-18T23:01:29.964Z,13.77
2018-09-18T23:03:58.818Z,13.63
2018-09-18T23:06:27.606Z,17.33
2018-09-18T23:08:56.309Z,16.73
2018-09-18T23:11:24.989Z,15.33
2018-09-18T23:13:53.882Z,13.63
2018-09-18T23:16:22.653Z,20.00
2018-09-18T23:18:51.530Z,20.17
2018-09-18T23:21:21.316Z,19.97
2018-09-18T23:23:50.252Z,21.07
2018-09-18T23:26:19.485Z,18.83
2018-09-18T23:28:48.041Z,20.57
2018-09-18T23:31:16.668Z,19.43
2018-09-18T23:33:45.267Z,20.40
2018-09-18T23:36:14.005Z,17.73
2018-09-18T23:38:42.686Z,14.33
2018-09-18T23:41:11.433Z,15.47
2018-09-18T23:43:40.141Z,19.53
2018-09-18T23:46:08.837Z,19.87
2018-09-18T23:48:37.594Z,18.80
2018-09-18T23:51:06.157Z,18.73
2018-09-18T23:53:34.828Z,19.03
2018-09-18T23:56:03.517Z,19.47
2018-09-18T23:58:32.563Z,20.53
